Time;durP1;ratioP1;P1;durP2;ratioP2;P2;SDS_P1;SDS_P2;PMS_P1;PMS_P2;Temp;Humidity;BMP_temperature;BMP_pressure;BME280_temperature;BME280_humidity;BME280_pressure;Samples;Min_cycle;Max_cycle;Signal;HPM_P1;HPM_P2
2021/01/11 00:01:43;;;;;;;21.10;14.97;;;-2.80;99.90;;;;;;5029518;28;20556;-69
2021/01/11 00:04:09;;;;;;;22.03;15.50;;;-2.90;99.90;;;;;;5030035;28;20259;-68
2021/01/11 00:06:39;;;;;;;19.50;13.30;;;-2.90;99.90;;;;;;5029988;28;20435;-68
2021/01/11 00:09:05;;;;;;;25.50;14.20;;;-2.90;99.90;;;;;;5029264;28;20440;-68
2021/01/11 00:11:32;;;;;;;23.60;16.10;;;-2.90;99.90;;;;;;5030335;28;20773;-69
2021/01/11 00:13:59;;;;;;;21.97;14.80;;;-2.90;99.90;;;;;;5030039;28;20515;-70
2021/01/11 00:16:25;;;;;;;19.10;14.30;;;-3.00;99.90;;;;;;5030319;28;20496;-69
2021/01/11 00:18:51;;;;;;;21.27;15.73;;;-3.00;99.90;;;;;;5029530;28;20465;-68
2021/01/11 00:21:16;;;;;;;22.40;14.30;;;-3.00;99.90;;;;;;5032325;28;20441;-69
2021/01/11 00:23:43;;;;;;;23.20;14.33;;;-3.10;99.90;;;;;;5033322;28;20206;-68
2021/01/11 00:26:10;;;;;;;25.17;15.90;;;-3.10;99.90;;;;;;5034027;28;20188;-69
2021/01/11 00:28:36;;;;;;;19.17;14.13;;;-3.10;99.90;;;;;;5033337;28;20467;-70
2021/01/11 00:31:01;;;;;;;21.90;14.97;;;-3.10;99.90;;;;;;5033973;28;20437;-70
2021/01/11 00:33:27;;;;;;;25.30;16.37;;;-3.10;99.90;;;;;;5033664;28;20174;-68
2021/01/11 00:35:52;;;;;;;23.27;14.60;;;-3.20;99.90;;;;;;5032112;28;20205;-72
2021/01/11 00:38:18;;;;;;;25.30;17.67;;;-3.20;99.90;;;;;;5033865;28;20183;-69
2021/01/11 00:40:43;;;;;;;20.00;15.00;;;-3.20;99.90;;;;;;5033826;28;20550;-69
2021/01/11 00:43:09;;;;;;;23.43;13.50;;;-3.20;99.90;;;;;;5033967;28;20255;-67
2021/01/11 00:45:35;;;;;;;22.53;15.80;;;-3.20;99.90;;;;;;5033216;28;20853;-70
2021/01/11 00:48:00;;;;;;;23.40;14.53;;;-3.20;99.90;;;;;;5033337;28;20444;-70
2021/01/11 00:50:26;;;;;;;25.50;14.23;;;-3.20;99.90;;;;;;5033724;28;20186;-69
2021/01/11 00:52:51;;;;;;;18.90;14.50;;;-3.20;99.90;;;;;;5033940;28;20190;-68
2021/01/11 00:55:17;;;;;;;27.30;14.13;;;-3.20;99.90;;;;;;5033165;28;20210;-70
2021/01/11 00:57:43;;;;;;;24.03;16.63;;;-3.30;99.90;;;;;;5033262;28;20225;-70
2021/01/11 01:00:11;;;;;;;23.97;15.50;;;-3.30;99.90;;;;;;5033438;28;20175;-69
2021/01/11 01:02:36;;;;;;;25.07;15.73;;;-3.30;99.90;;;;;;5033390;28;20182;-70
2021/01/11 01:05:02;;;;;;;22.73;14.60;;;-3.30;99.90;;;;;;5033012;28;20583;-68
2021/01/11 01:07:28;;;;;;;22.13;13.83;;;-3.30;99.90;;;;;;5032707;28;20205;-69
2021/01/11 01:09:53;;;;;;;23.20;14.80;;;-3.30;99.90;;;;;;5032722;28;20444;-68
2021/01/11 01:12:19;;;;;;;20.67;15.50;;;-3.30;99.90;;;;;;5033309;28;20191;-70
2021/01/11 01:14:45;;;;;;;21.90;13.13;;;-3.30;99.90;;;;;;5014492;28;20202;-69
2021/01/11 01:17:10;;;;;;;20.23;15.03;;;-3.20;99.90;;;;;;5032787;28;20213;-70
2021/01/11 01:19:36;;;;;;;23.97;14.63;;;-3.30;99.90;;;;;;5032836;28;20189;-70
2021/01/11 01:22:01;;;;;;;25.30;15.83;;;-3.30;99.90;;;;;;5033274;28;20248;-69
2021/01/11 01:24:27;;;;;;;23.43;14.17;;;-3.40;99.90;;;;;;5033137;28;20579;-68
2021/01/11 01:26:52;;;;;;;24.97;15.77;;;-3.50;99.90;;;;;;5033125;28;20209;-70
2021/01/11 01:29:18;;;;;;;25.50;15.60;;;-3.50;99.90;;;;;;5032378;28;20281;-72
2021/01/11 01:31:43;;;;;;;22.37;14.07;;;-3.50;99.90;;;;;;5031925;28;20178;-67
2021/01/11 01:34:09;;;;;;;19.40;14.60;;;-3.50;99.90;;;;;;5032676;28;20297;-68
2021/01/11 01:36:34;;;;;;;26.57;15.03;;;-3.50;99.90;;;;;;5033058;28;20675;-68
2021/01/11 01:39:00;;;;;;;20.13;13.30;;;-3.40;99.90;;;;;;5032893;28;20194;-70
2021/01/11 01:41:25;;;;;;;21.30;15.43;;;-3.40;99.90;;;;;;5033218;28;20197;-72
2021/01/11 01:43:51;;;;;;;23.93;15.60;;;-3.50;99.90;;;;;;5033174;28;20252;-68
2021/01/11 01:46:20;;;;;;;20.50;13.20;;;-3.40;99.90;;;;;;5033221;28;20220;-68
2021/01/11 01:48:46;;;;;;;22.37;13.93;;;-3.50;99.90;;;;;;5032478;28;20672;-69
2021/01/11 01:51:12;;;;;;;24.80;13.30;;;-3.60;99.90;;;;;;5032537;28;20514;-72
2021/01/11 01:53:39;;;;;;;22.97;15.13;;;-3.70;99.90;;;;;;5032593;28;20186;-69
2021/01/11 01:56:05;;;;;;;23.43;14.40;;;-3.80;99.90;;;;;;5031871;28;20555;-68
2021/01/11 01:58:32;;;;;;;22.27;15.07;;;-3.90;99.90;;;;;;5031888;28;20467;-68
2021/01/11 02:00:58;;;;;;;22.23;13.73;;;-3.90;99.90;;;;;;5031819;28;20517;-69
2021/01/11 02:03:23;;;;;;;24.50;15.00;;;-3.90;99.90;;;;;;5032223;28;20440;-69
2021/01/11 02:05:49;;;;;;;22.00;14.70;;;-4.00;99.90;;;;;;5032195;28;20495;-70
2021/01/11 02:08:28;;;;;;;26.03;14.27;;;-4.00;99.90;;;;;;5031753;28;20182;-70
2021/01/11 02:11:25;;;;;;;24.37;14.77;;;-4.00;99.90;;;;;;5032076;28;20624;-72
2021/01/11 02:14:18;;;;;;;22.43;14.80;;;-4.00;99.90;;;;;;5030605;28;20563;-69
2021/01/11 02:16:48;;;;;;;18.90;13.87;;;-4.00;99.90;;;;;;5029619;28;20542;-70
2021/01/11 02:19:50;;;;;;;25.43;15.37;;;-4.00;99.90;;;;;;5031533;28;20927;-71
2021/01/11 02:22:25;;;;;;;24.17;14.50;;;-4.00;99.90;;;;;;5032048;28;20428;-71
2021/01/11 02:25:28;;;;;;;21.80;14.17;;;-4.00;99.90;;;;;;5031050;28;20475;-71
2021/01/11 02:27:57;;;;;;;19.13;12.40;;;-4.00;99.90;;;;;;5031617;28;20444;-70
2021/01/11 02:30:25;;;;;;;24.37;16.33;;;-3.90;99.90;;;;;;5031537;28;20432;-71
2021/01/11 02:33:14;;;;;;;22.13;14.60;;;-3.90;99.90;;;;;;5031620;28;20486;-69
2021/01/11 02:35:48;;;;;;;23.63;13.97;;;-3.80;99.90;;;;;;5031219;28;20534;-70
2021/01/11 02:38:21;;;;;;;24.97;16.40;;;-3.90;99.90;;;;;;5031588;28;20559;-69
2021/01/11 02:40:47;;;;;;;22.30;14.77;;;-3.90;99.90;;;;;;5031313;28;20487;-70
2021/01/11 02:43:14;;;;;;;22.83;13.70;;;-4.00;99.90;;;;;;5031512;28;20437;-69
2021/01/11 02:45:40;;;;;;;27.13;14.70;;;-4.00;99.90;;;;;;5031431;28;20471;-69
2021/01/11 02:48:23;;;;;;;22.90;13.83;;;-4.00;99.90;;;;;;5031253;28;20436;-70
2021/01/11 02:51:07;;;;;;;23.20;15.30;;;-3.90;99.90;;;;;;5013319;28;20189;-71
2021/01/11 02:53:40;;;;;;;28.03;15.40;;;-4.00;99.90;;;;;;5031690;28;20440;-69
2021/01/11 02:56:08;;;;;;;25.73;14.90;;;-4.10;99.90;;;;;;5031184;28;20460;-70
2021/01/11 02:58:52;;;;;;;21.23;14.60;;;-4.10;99.90;;;;;;5031014;28;20511;-70
2021/01/11 03:01:18;;;;;;;21.13;13.13;;;-4.20;99.90;;;;;;5031391;28;20468;-69
2021/01/11 03:03:47;;;;;;;27.50;12.80;;;-4.20;99.90;;;;;;5031075;28;20487;-69
2021/01/11 03:06:13;;;;;;;24.40;15.07;;;-4.10;99.90;;;;;;5031197;28;20433;-69
2021/01/11 03:08:38;;;;;;;21.73;14.23;;;-4.10;99.90;;;;;;5030625;28;20441;-70
2021/01/11 03:11:04;;;;;;;30.10;16.13;;;-4.20;99.90;;;;;;5031067;28;20432;-71
2021/01/11 03:13:30;;;;;;;23.27;14.50;;;-4.20;99.90;;;;;;5030967;28;20265;-69
2021/01/11 03:15:55;;;;;;;26.77;15.17;;;-4.20;99.90;;;;;;5031028;28;20209;-69
2021/01/11 03:18:21;;;;;;;24.33;14.60;;;-4.30;99.90;;;;;;5030358;28;20257;-69
2021/01/11 03:20:47;;;;;;;23.33;14.10;;;-4.30;99.90;;;;;;5012551;28;20169;-70
2021/01/11 03:23:12;;;;;;;18.37;13.37;;;-4.30;99.90;;;;;;5031118;28;20279;-69
2021/01/11 03:25:40;;;;;;;20.80;12.80;;;-4.30;99.90;;;;;;5030824;28;20225;-69
2021/01/11 03:28:06;;;;;;;22.13;13.03;;;-4.30;99.90;;;;;;5030266;28;20181;-69
2021/01/11 03:30:31;;;;;;;19.93;13.40;;;-4.40;99.90;;;;;;5030906;28;20429;-70
2021/01/11 03:32:57;;;;;;;18.93;11.97;;;-4.40;99.90;;;;;;5030625;28;20181;-70
2021/01/11 03:35:22;;;;;;;19.30;12.73;;;-4.40;99.90;;;;;;5030772;28;20201;-69
2021/01/11 03:37:48;;;;;;;21.00;12.67;;;-4.40;99.90;;;;;;5030025;28;20217;-69
2021/01/11 03:40:14;;;;;;;20.40;12.93;;;-4.40;99.90;;;;;;5030589;28;20185;-68
2021/01/11 03:42:39;;;;;;;18.77;11.30;;;-4.40;99.90;;;;;;5030277;28;20174;-69
2021/01/11 03:45:07;;;;;;;20.50;12.10;;;-4.40;99.90;;;;;;5030597;28;20448;-70
2021/01/11 03:47:33;;;;;;;18.17;13.70;;;-4.40;99.90;;;;;;5030145;28;20265;-70
2021/01/11 03:49:59;;;;;;;19.97;12.50;;;-4.40;99.90;;;;;;5030440;28;20516;-69
2021/01/11 03:52:25;;;;;;;21.87;12.20;;;-4.40;99.90;;;;;;5030370;28;20206;-69
2021/01/11 03:54:51;;;;;;;25.13;14.80;;;-4.40;99.90;;;;;;5029547;28;20194;-69
2021/01/11 03:57:17;;;;;;;24.37;13.67;;;-4.40;99.90;;;;;;5030188;28;20807;-69
2021/01/11 03:59:43;;;;;;;18.53;11.90;;;-4.40;99.90;;;;;;5029961;28;20455;-70
2021/01/11 04:02:08;;;;;;;19.40;12.67;;;-4.50;99.90;;;;;;5030409;28;20200;-69
2021/01/11 04:04:34;;;;;;;23.27;12.80;;;-4.50;99.90;;;;;;5030133;28;20277;-69
2021/01/11 04:06:59;;;;;;;20.83;13.00;;;-4.50;99.90;;;;;;5030010;28;20182;-70
2021/01/11 04:09:25;;;;;;;23.73;14.20;;;-4.40;99.90;;;;;;5030094;28;20174;-70
2021/01/11 04:11:51;;;;;;;21.90;13.10;;;-4.40;99.90;;;;;;5030093;28;20663;-69
2021/01/11 04:14:18;;;;;;;23.80;14.97;;;-4.40;99.90;;;;;;5030101;28;20460;-69
2021/01/11 04:16:44;;;;;;;20.43;13.10;;;-4.40;99.90;;;;;;5030080;28;20496;-72
2021/01/11 04:19:10;;;;;;;19.27;12.47;;;-4.40;99.90;;;;;;5012077;28;20460;-70
2021/01/11 04:21:36;;;;;;;25.47;13.80;;;-4.50;99.90;;;;;;5030133;28;20787;-70
2021/01/11 04:24:01;;;;;;;18.87;12.70;;;-4.50;99.90;;;;;;5030073;28;20453;-71
2021/01/11 04:26:27;;;;;;;25.07;13.47;;;-4.60;99.90;;;;;;5030247;28;20182;-68
2021/01/11 04:28:53;;;;;;;18.07;13.03;;;-4.60;99.90;;;;;;5029859;28;20692;-69
2021/01/11 04:31:18;;;;;;;19.83;13.50;;;-4.60;99.90;;;;;;5012857;28;20213;-70
2021/01/11 04:33:44;;;;;;;24.43;13.60;;;-4.60;99.90;;;;;;5030109;28;20166;-69
2021/01/11 04:36:10;;;;;;;21.33;14.83;;;-4.70;99.90;;;;;;5030567;28;20699;-68
2021/01/11 04:38:35;;;;;;;23.17;12.77;;;-4.70;99.90;;;;;;5029842;28;20182;-68
2021/01/11 04:41:05;;;;;;;26.03;14.77;;;-4.70;99.90;;;;;;5012556;28;20236;-68
2021/01/11 04:43:45;;;;;;;22.90;13.00;;;-4.70;99.90;;;;;;5030065;28;20695;-69
2021/01/11 04:46:13;;;;;;;17.67;12.03;;;-4.70;99.90;;;;;;5030205;28;20446;-67
2021/01/11 04:48:40;;;;;;;24.87;12.50;;;-4.70;99.90;;;;;;5029562;28;20436;-70
2021/01/11 04:51:06;;;;;;;20.73;12.10;;;-4.70;99.90;;;;;;5016828;28;20946;-68
2021/01/11 04:53:34;;;;;;;19.53;13.00;;;-4.70;99.90;;;;;;5029778;28;20436;-69
2021/01/11 04:56:01;;;;;;;21.50;12.27;;;-4.60;99.90;;;;;;5029700;28;20194;-69
2021/01/11 04:58:36;;;;;;;26.83;12.20;;;-4.60;99.90;;;;;;5029869;28;20413;-69
2021/01/11 05:01:04;;;;;;;21.20;11.73;;;-4.70;99.90;;;;;;5029481;28;20432;-69
2021/01/11 05:03:30;;;;;;;19.60;12.53;;;-4.70;99.90;;;;;;5029999;28;20508;-69
2021/01/11 05:05:55;;;;;;;20.53;11.73;;;-4.70;99.90;;;;;;5030159;28;20556;-69
2021/01/11 05:08:21;;;;;;;23.50;12.67;;;-4.80;99.90;;;;;;5032973;28;20433;-69
2021/01/11 05:10:46;;;;;;;24.53;14.00;;;-4.90;99.90;;;;;;5015348;28;20520;-70
2021/01/11 05:13:12;;;;;;;21.07;12.73;;;-4.90;99.90;;;;;;5033374;28;20178;-69
2021/01/11 05:15:39;;;;;;;15.80;10.10;;;-4.90;99.90;;;;;;5033112;28;20198;-70
2021/01/11 05:18:16;;;;;;;23.47;12.10;;;-4.90;99.90;;;;;;5015406;28;20241;-68
2021/01/11 05:20:41;;;;;;;16.93;11.57;;;-4.90;99.90;;;;;;5032851;28;20437;-69
2021/01/11 05:23:09;;;;;;;15.30;10.60;;;-4.90;99.90;;;;;;5033409;28;20493;-69
2021/01/11 05:25:37;;;;;;;20.43;11.03;;;-4.90;99.90;;;;;;5032568;28;20225;-70
2021/01/11 05:28:11;;;;;;;18.20;12.37;;;-4.80;99.90;;;;;;5014843;28;20436;-68
2021/01/11 05:30:37;;;;;;;22.17;13.97;;;-4.80;99.90;;;;;;5032444;28;20481;-70
2021/01/11 05:33:05;;;;;;;21.67;11.80;;;-4.80;99.90;;;;;;5032646;28;20437;-70
2021/01/11 05:35:31;;;;;;;23.13;12.00;;;-4.80;99.90;;;;;;5033194;28;20824;-69
2021/01/11 05:37:59;;;;;;;18.53;10.47;;;-4.80;99.90;;;;;;5032564;28;20461;-68
2021/01/11 05:40:26;;;;;;;24.70;12.70;;;-4.70;99.90;;;;;;5032622;28;20989;-69
2021/01/11 05:42:54;;;;;;;19.30;12.47;;;-4.80;99.90;;;;;;5014792;28;20432;-68
2021/01/11 05:45:33;;;;;;;23.03;12.80;;;-4.80;99.90;;;;;;5032816;28;20456;-69
2021/01/11 05:48:08;;;;;;;22.07;14.00;;;-4.90;99.90;;;;;;5031882;28;20498;-68
2021/01/11 05:50:40;;;;;;;19.23;12.37;;;-4.90;99.90;;;;;;5033029;28;21031;-70
2021/01/11 05:53:23;;;;;;;22.57;11.97;;;-4.90;99.90;;;;;;5017054;28;20433;-68
2021/01/11 05:55:50;;;;;;;22.10;13.00;;;-4.90;99.90;;;;;;5032109;28;20464;-68
2021/01/11 05:58:20;;;;;;;20.17;13.80;;;-4.90;99.90;;;;;;5032009;28;20440;-69
2021/01/11 06:00:46;;;;;;;22.67;11.90;;;-4.90;99.90;;;;;;5029817;28;20444;-68
2021/01/11 06:03:12;;;;;;;28.30;12.70;;;-4.90;99.90;;;;;;5032132;28;20441;-69
2021/01/11 06:05:39;;;;;;;24.17;12.93;;;-5.00;99.90;;;;;;5032241;28;20198;-69
2021/01/11 06:08:07;;;;;;;28.47;13.27;;;-5.00;99.90;;;;;;5031358;28;21014;-68
2021/01/11 06:10:33;;;;;;;22.77;13.17;;;-5.10;99.90;;;;;;5032225;28;20456;-68
2021/01/11 06:12:58;;;;;;;22.63;12.53;;;-5.10;99.90;;;;;;5032335;28;20483;-68
2021/01/11 06:15:26;;;;;;;20.40;12.63;;;-5.10;99.90;;;;;;5031978;28;20853;-71
2021/01/11 06:17:54;;;;;;;20.43;12.73;;;-5.10;99.90;;;;;;5013460;28;20206;-70
2021/01/11 06:20:22;;;;;;;23.83;12.90;;;-5.10;99.90;;;;;;5032081;28;20424;-69
2021/01/11 06:22:51;;;;;;;26.80;14.03;;;-5.10;99.90;;;;;;5014359;28;20528;-69
2021/01/11 06:25:20;;;;;;;18.10;13.10;;;-5.10;99.90;;;;;;5031952;28;20483;-69
2021/01/11 06:27:58;;;;;;;23.90;13.47;;;-5.10;99.90;;;;;;5031810;28;20467;-68
2021/01/11 06:30:44;;;;;;;25.43;12.90;;;-5.10;99.90;;;;;;5031913;28;20783;-69
2021/01/11 06:33:15;;;;;;;21.60;12.73;;;-5.10;99.90;;;;;;5031714;28;20439;-69
2021/01/11 06:35:47;;;;;;;21.60;12.30;;;-5.10;99.90;;;;;;5031361;28;20518;-68
2021/01/11 06:38:25;;;;;;;18.93;13.00;;;-5.00;99.90;;;;;;5031451;28;20966;-68
2021/01/11 06:41:02;;;;;;;17.53;13.37;;;-5.00;99.90;;;;;;5031765;28;20997;-70
2021/01/11 06:43:49;;;;;;;24.63;14.30;;;-4.90;99.90;;;;;;5031900;28;20514;-69
2021/01/11 06:46:30;;;;;;;22.03;12.70;;;-4.90;99.90;;;;;;5031130;28;20459;-69
2021/01/11 06:49:00;;;;;;;20.37;13.07;;;-4.90;99.90;;;;;;5016150;28;20452;-69
2021/01/11 06:51:32;;;;;;;24.20;14.90;;;-4.90;99.90;;;;;;5024704;28;20444;-69
2021/01/11 06:54:11;;;;;;;27.20;16.13;;;-4.90;99.90;;;;;;5030591;28;20461;-68
2021/01/11 06:56:39;;;;;;;26.97;14.57;;;-5.10;99.90;;;;;;5030974;28;20550;-69
2021/01/11 06:59:11;;;;;;;22.20;14.50;;;-5.10;99.90;;;;;;5031047;28;20429;-68
2021/01/11 07:01:38;;;;;;;19.93;13.60;;;-5.10;99.90;;;;;;5023089;28;20519;-69
2021/01/11 07:04:08;;;;;;;25.00;15.70;;;-5.10;99.90;;;;;;5013299;28;20523;-68
2021/01/11 07:06:44;;;;;;;27.10;14.60;;;-5.10;99.90;;;;;;5029033;28;20437;-68
2021/01/11 07:09:19;;;;;;;23.50;15.50;;;-5.10;99.90;;;;;;5030235;28;20440;-68
2021/01/11 07:11:48;;;;;;;23.50;14.20;;;-5.10;99.90;;;;;;5030648;28;20463;-69
2021/01/11 07:14:22;;;;;;;21.50;13.03;;;-5.10;99.90;;;;;;5030818;28;20460;-69
2021/01/11 07:16:55;;;;;;;21.20;14.63;;;-5.10;99.90;;;;;;5030142;28;20487;-71
2021/01/11 07:19:21;;;;;;;25.23;14.83;;;-5.00;99.90;;;;;;5030296;28;20440;-68
2021/01/11 07:21:50;;;;;;;24.70;15.50;;;-5.00;99.90;;;;;;5029570;28;20429;-67
2021/01/11 07:24:17;;;;;;;28.07;16.37;;;-4.90;99.90;;;;;;5030015;28;20465;-68
2021/01/11 07:26:43;;;;;;;26.60;17.97;;;-5.00;99.90;;;;;;5027699;28;20437;-67
2021/01/11 07:29:11;;;;;;;25.53;16.13;;;-4.90;99.90;;;;;;5019831;28;20847;-68
2021/01/11 07:31:38;;;;;;;24.60;16.17;;;-4.90;99.90;;;;;;5028437;28;20439;-68
2021/01/11 07:34:06;;;;;;;25.43;15.03;;;-4.90;99.90;;;;;;5030287;28;20472;-68
2021/01/11 07:36:39;;;;;;;21.23;14.70;;;-4.80;99.90;;;;;;5030012;28;20500;-71
2021/01/11 07:39:23;;;;;;;21.60;14.80;;;-4.70;99.90;;;;;;5027810;28;20527;-69
2021/01/11 07:41:50;;;;;;;26.60;15.27;;;-4.70;99.90;;;;;;5012922;28;20444;-71
2021/01/11 07:44:26;;;;;;;23.77;14.27;;;-4.70;99.90;;;;;;5002410;28;20479;-71
2021/01/11 07:46:55;;;;;;;22.43;13.80;;;-4.70;99.90;;;;;;5020759;28;20448;-69
2021/01/11 07:49:22;;;;;;;24.30;15.10;;;-4.60;99.90;;;;;;5024412;28;20445;-70
2021/01/11 07:51:50;;;;;;;24.37;15.23;;;-4.60;99.90;;;;;;5026922;28;20445;-70
2021/01/11 07:54:17;;;;;;;21.57;14.13;;;-4.30;99.90;;;;;;5027016;28;20456;-70
2021/01/11 07:56:44;;;;;;;27.97;16.07;;;-3.90;99.90;;;;;;5023895;28;20961;-69
2021/01/11 07:59:11;;;;;;;22.20;15.73;;;-3.40;99.90;;;;;;5007851;28;21013;-70
2021/01/11 08:01:39;;;;;;;30.57;16.80;;;-2.90;99.90;;;;;;5009087;28;21091;-70
2021/01/11 08:04:06;;;;;;;22.37;14.10;;;-2.20;99.90;;;;;;5023450;28;20502;-69
2021/01/11 08:06:44;;;;;;;22.23;15.50;;;-1.90;99.90;;;;;;5026556;28;20602;-68
2021/01/11 08:09:13;;;;;;;16.97;13.27;;;-1.50;99.90;;;;;;5025549;28;20934;-68
2021/01/11 08:11:40;;;;;;;23.40;14.77;;;-0.80;99.90;;;;;;5025920;28;20441;-69
2021/01/11 08:14:10;;;;;;;22.53;15.30;;;-0.20;99.90;;;;;;5008896;28;20469;-70
2021/01/11 08:16:38;;;;;;;19.27;13.57;;;0.30;99.90;;;;;;5026139;28;20469;-70
2021/01/11 08:19:08;;;;;;;31.70;21.40;;;1.20;99.90;;;;;;5025592;28;20462;-70
2021/01/11 08:21:34;;;;;;;22.77;16.67;;;2.10;99.90;;;;;;5026816;28;20515;-69
2021/01/11 08:24:01;;;;;;;19.10;13.90;;;1.60;99.90;;;;;;5026896;28;20606;-70
2021/01/11 08:26:29;;;;;;;18.00;14.43;;;1.20;99.90;;;;;;5027094;28;20578;-69
2021/01/11 08:28:57;;;;;;;17.53;14.70;;;1.70;99.90;;;;;;5026290;28;20535;-70
2021/01/11 08:31:23;;;;;;;20.17;14.80;;;2.30;99.90;;;;;;5008582;28;20441;-69
2021/01/11 08:33:49;;;;;;;24.30;16.20;;;3.10;99.90;;;;;;5026750;28;20474;-70
2021/01/11 08:36:19;;;;;;;16.80;13.90;;;3.60;99.90;;;;;;5026193;28;20468;-70
2021/01/11 08:39:07;;;;;;;20.10;14.77;;;4.50;99.90;;;;;;5026539;28;20467;-71
2021/01/11 08:41:35;;;;;;;16.77;14.97;;;5.30;99.90;;;;;;5028341;28;20444;-71
2021/01/11 08:44:01;;;;;;;19.20;14.57;;;5.70;99.90;;;;;;5031152;28;20471;-70
2021/01/11 08:46:55;;;;;;;15.37;13.63;;;5.80;99.20;;;;;;5031695;28;20440;-71
2021/01/11 08:49:22;;;;;;;16.90;14.40;;;5.40;98.00;;;;;;5018645;28;20188;-70
2021/01/11 08:51:48;;;;;;;17.50;14.03;;;5.70;98.80;;;;;;5030705;28;20467;-69
2021/01/11 08:54:46;;;;;;;17.33;13.70;;;5.00;98.50;;;;;;5029812;28;20460;-70
2021/01/11 08:57:14;;;;;;;17.57;13.73;;;5.20;99.60;;;;;;4976080;28;20476;-69
2021/01/11 08:59:50;;;;;;;18.20;14.00;;;5.20;99.10;;;;;;5029801;28;20448;-69
2021/01/11 09:02:23;;;;;;;18.73;13.83;;;5.20;98.60;;;;;;5029146;28;20524;-69
2021/01/11 09:04:48;;;;;;;15.87;13.27;;;5.10;99.70;;;;;;5011977;28;21039;-71
2021/01/11 09:07:23;;;;;;;19.57;14.70;;;6.20;99.00;;;;;;5029620;28;20465;-70
2021/01/11 09:09:49;;;;;;;22.27;14.30;;;6.60;95.60;;;;;;5031856;28;20724;-70
2021/01/11 09:12:14;;;;;;;15.37;12.70;;;5.00;97.50;;;;;;5032465;28;20436;-69
2021/01/11 09:14:53;;;;;;;17.97;13.50;;;3.80;99.50;;;;;;5032346;28;20278;-70
2021/01/11 09:17:30;;;;;;;16.67;12.33;;;3.20;99.90;;;;;;5030236;28;20205;-70
2021/01/11 09:20:00;;;;;;;17.97;11.97;;;2.90;99.90;;;;;;5031030;28;20965;-69
2021/01/11 09:22:31;;;;;;;18.10;13.13;;;3.20;99.90;;;;;;5032368;28;20950;-69
2021/01/11 09:24:57;;;;;;;18.70;12.53;;;4.00;99.90;;;;;;5030498;28;20510;-71
2021/01/11 09:27:24;;;;;;;18.30;13.80;;;4.70;99.80;;;;;;5029854;28;20448;-71
2021/01/11 09:29:50;;;;;;;16.73;13.53;;;5.00;99.70;;;;;;5029017;28;20934;-70
2021/01/11 09:32:17;;;;;;;15.00;11.83;;;5.80;97.00;;;;;;5011558;28;20514;-71
2021/01/11 09:34:42;;;;;;;17.00;11.70;;;5.30;96.70;;;;;;5029525;28;20897;-70
2021/01/11 09:37:14;;;;;;;16.10;13.33;;;6.30;96.30;;;;;;5030174;28;20456;-69
2021/01/11 09:39:40;;;;;;;15.90;12.40;;;7.60;93.30;;;;;;5029798;28;20178;-70
2021/01/11 09:42:06;;;;;;;16.93;12.00;;;6.80;92.90;;;;;;5028849;28;20467;-69
2021/01/11 09:44:32;;;;;;;20.60;15.37;;;6.30;93.40;;;;;;5028789;28;20496;-68
2021/01/11 09:46:59;;;;;;;17.37;14.60;;;6.40;94.30;;;;;;5028352;28;20182;-69
2021/01/11 09:49:26;;;;;;;17.00;12.97;;;6.40;94.10;;;;;;5028593;28;20990;-69
2021/01/11 09:51:52;;;;;;;14.20;11.90;;;6.10;94.00;;;;;;5029003;28;20447;-69
2021/01/11 09:54:18;;;;;;;16.80;12.47;;;5.90;93.60;;;;;;5010190;28;20464;-69
2021/01/11 09:56:44;;;;;;;14.20;12.00;;;6.40;93.30;;;;;;5028560;28;20561;-69
2021/01/11 09:59:10;;;;;;;14.57;11.63;;;6.70;91.70;;;;;;5010476;28;20529;-70
2021/01/11 10:01:43;;;;;;;15.57;12.67;;;7.00;91.90;;;;;;5029039;28;20186;-69
2021/01/11 10:04:11;;;;;;;16.40;14.17;;;7.80;90.60;;;;;;5028705;28;20457;-68
2021/01/11 10:06:42;;;;;;;15.03;12.70;;;7.80;88.20;;;;;;5028740;28;20461;-69
2021/01/11 10:09:08;;;;;;;14.93;12.07;;;7.00;88.20;;;;;;5006006;28;20441;-68
2021/01/11 10:11:34;;;;;;;19.17;12.53;;;7.50;90.30;;;;;;5028978;28;20508;-68
2021/01/11 10:13:59;;;;;;;14.20;12.43;;;7.20;88.20;;;;;;5028404;28;20571;-68
2021/01/11 10:16:25;;;;;;;14.07;10.87;;;7.70;87.20;;;;;;5010939;28;20209;-69
2021/01/11 10:18:50;;;;;;;13.20;11.13;;;7.40;85.80;;;;;;5010181;28;20186;-69
2021/01/11 10:21:16;;;;;;;16.60;12.57;;;7.50;84.90;;;;;;5028632;28;20182;-69
2021/01/11 10:23:41;;;;;;;13.20;11.57;;;6.80;86.20;;;;;;5028592;28;20670;-69
2021/01/11 10:26:07;;;;;;;15.50;11.13;;;7.20;87.00;;;;;;5028366;28;20190;-69
2021/01/11 10:28:32;;;;;;;17.30;13.97;;;7.80;84.30;;;;;;5025957;28;20174;-69
2021/01/11 10:30:58;;;;;;;14.60;11.20;;;8.00;84.80;;;;;;5029156;28;20256;-67
2021/01/11 10:33:24;;;;;;;13.27;11.87;;;7.60;82.10;;;;;;5010450;28;20236;-68
2021/01/11 10:35:56;;;;;;;14.80;11.70;;;7.00;85.10;;;;;;5028269;28;20297;-68
2021/01/11 10:38:21;;;;;;;17.20;12.73;;;7.00;85.90;;;;;;5027959;28;20217;-68
2021/01/11 10:40:47;;;;;;;19.67;14.53;;;7.80;85.50;;;;;;5028157;28;20433;-70
2021/01/11 10:43:13;;;;;;;14.13;12.00;;;8.80;81.40;;;;;;5010067;28;20656;-68
2021/01/11 10:45:38;;;;;;;14.13;11.20;;;10.20;76.10;;;;;;5027772;28;20194;-68
2021/01/11 10:48:05;;;;;;;15.00;13.40;;;11.50;68.00;;;;;;5028085;28;20244;-68
2021/01/11 10:50:31;;;;;;;20.10;13.90;;;11.10;66.20;;;;;;5009521;28;20687;-68
2021/01/11 10:52:57;;;;;;;16.07;13.10;;;12.90;62.60;;;;;;5027776;28;20456;-68
2021/01/11 10:55:22;;;;;;;15.60;14.10;;;14.30;58.30;;;;;;5010259;28;20240;-69
2021/01/11 10:57:48;;;;;;;15.87;14.27;;;14.00;54.10;;;;;;5027172;28;20264;-69
2021/01/11 11:00:16;;;;;;;17.10;15.40;;;12.90;54.20;;;;;;5027383;28;20182;-68
2021/01/11 11:02:44;;;;;;;27.90;21.43;;;13.20;54.70;;;;;;5027714;28;20527;-70
2021/01/11 11:05:10;;;;;;;15.90;14.30;;;12.10;55.30;;;;;;5008729;28;20456;-68
2021/01/11 11:07:38;;;;;;;14.70;13.10;;;10.40;56.90;;;;;;5027439;28;20547;-68
2021/01/11 11:10:07;;;;;;;13.27;11.87;;;9.00;59.40;;;;;;5027212;28;20439;-69
2021/01/11 11:12:33;;;;;;;13.63;12.33;;;10.50;59.90;;;;;;5028234;28;20436;-69
2021/01/11 11:15:00;;;;;;;15.80;13.17;;;10.60;57.10;;;;;;5027054;28;20440;-68
2021/01/11 11:17:32;;;;;;;13.03;11.03;;;8.90;59.10;;;;;;5027311;28;20921;-68
2021/01/11 11:19:59;;;;;;;18.50;11.37;;;6.90;64.40;;;;;;5027404;28;20440;-69
2021/01/11 11:22:25;;;;;;;15.10;11.30;;;5.90;71.20;;;;;;5026676;28;20437;-68
2021/01/11 11:24:51;;;;;;;14.30;10.50;;;5.70;72.60;;;;;;5026458;28;20453;-67
2021/01/11 11:27:17;;;;;;;26.40;11.60;;;5.60;76.80;;;;;;5009350;28;20499;-66
2021/01/11 11:29:42;;;;;;;13.70;11.43;;;7.20;73.70;;;;;;5026874;28;21031;-66
2021/01/11 11:32:08;;;;;;;19.67;13.50;;;8.20;68.70;;;;;;5027037;28;20467;-69
2021/01/11 11:34:34;;;;;;;13.87;11.87;;;8.60;66.00;;;;;;5008784;28;20225;-68
2021/01/11 11:36:59;;;;;;;14.60;11.77;;;7.00;67.40;;;;;;5027252;28;20503;-67
2021/01/11 11:39:25;;;;;;;14.40;12.07;;;6.40;72.00;;;;;;5026461;28;20740;-68
2021/01/11 11:41:59;;;;;;;17.60;13.17;;;6.50;73.20;;;;;;5027488;28;20179;-69
2021/01/11 11:44:25;;;;;;;41.80;14.57;;;8.00;72.00;;;;;;5027124;28;20277;-68
2021/01/11 11:46:52;;;;;;;22.53;12.90;;;10.90;64.50;;;;;;5026663;28;20826;-69
2021/01/11 11:49:17;;;;;;;14.33;12.87;;;11.40;58.40;;;;;;5026580;28;20437;-69
2021/01/11 11:51:45;;;;;;;14.63;11.00;;;11.60;56.80;;;;;;5026212;28;20445;-70
2021/01/11 11:54:11;;;;;;;12.47;11.17;;;10.90;57.50;;;;;;5020922;28;20202;-69
2021/01/11 11:56:43;;;;;;;14.73;13.20;;;12.40;57.00;;;;;;5026911;28;20561;-68
2021/01/11 11:59:09;;;;;;;15.50;12.70;;;12.70;53.50;;;;;;5016133;28;20178;-68
2021/01/11 12:01:40;;;;;;;16.37;13.00;;;12.10;54.80;;;;;;5026726;28;20447;-68
2021/01/11 12:04:06;;;;;;;19.90;13.80;;;12.80;54.50;;;;;;5026896;28;20889;-68
2021/01/11 12:06:37;;;;;;;16.00;14.30;;;13.50;53.00;;;;;;5026970;28;20437;-68
2021/01/11 12:09:03;;;;;;;15.33;13.50;;;13.10;53.20;;;;;;5026141;28;20853;-68
2021/01/11 12:11:37;;;;;;;14.83;13.33;;;13.70;52.80;;;;;;5021621;28;20494;-68
2021/01/11 12:14:03;;;;;;;15.17;13.57;;;13.50;52.10;;;;;;5018834;28;20817;-68
2021/01/11 12:16:28;;;;;;;17.77;15.87;;;14.60;52.20;;;;;;5028295;28;20464;-68
2021/01/11 12:18:54;;;;;;;15.10;13.60;;;15.60;49.20;;;;;;5029437;28;21001;-67
2021/01/11 12:21:33;;;;;;;21.93;16.83;;;16.30;47.30;;;;;;5029881;28;20174;-68
2021/01/11 12:24:00;;;;;;;15.43;13.73;;;15.30;47.30;;;;;;5030453;28;20202;-68
2021/01/11 12:26:26;;;;;;;22.93;19.20;;;14.90;47.50;;;;;;5031074;28;20863;-67
2021/01/11 12:28:52;;;;;;;19.53;17.63;;;15.70;48.20;;;;;;5030661;28;20441;-67
2021/01/11 12:31:25;;;;;;;15.23;13.83;;;15.90;47.10;;;;;;5031117;28;20178;-68
2021/01/11 12:33:50;;;;;;;23.00;15.53;;;16.80;45.70;;;;;;5030904;28;20189;-68
2021/01/11 12:36:22;;;;;;;14.43;12.73;;;18.10;43.40;;;;;;5030470;28;20471;-67